Weather at Kongsted Svæveflyveplads Glider

Public forecast

Using degrees Celsius for public forecast. Weather courtesy of forecast.io.

Closest aviation weather report (METAR) to Kongsted Svæveflyveplads Glider

Closest report is Ringsted Airfield, 13.6 nm (25.2 km) NW.

2024/05/30 09:50 (retrieved 31 minutes ago)

EKRS 300950Z AUTO 19005KT 140V230 9999 BKN024/// OVC032/// 17/17 Q1007

Closest aviation forecast (TAF) to Kongsted Svæveflyveplads Glider

Closest forecast is Copenhagen Kastrup Airport, 29.8 nm (55.3 km) NE.

2024/05/30 06:30 (retrieved 4 hours ago)

TAF EKCH 300508Z 3006/3106 13012KT 9999 FEW020 BKN040 TEMPO 3006/3007 4000 SHRA BR BKN012 BKN020CB TEMPO 3007/3009 BKN012 FEW020CB TEMPO 3009/3024 FEW020CB TEMPO 3100/3106 BKN008 SCT020CB